sensor_id;sensor_type;location;lat;lon;timestamp;P1;durP1;ratioP1;P2;durP2;ratioP2
54935;SDS011;40838;50.676;7.838;2022-11-18T00:00:02;14.02;;;4.13;;
54935;SDS011;40838;50.676;7.838;2022-11-18T00:02:31;6.82;;;3.65;;
54935;SDS011;40838;50.676;7.838;2022-11-18T00:04:58;7.88;;;3.20;;
54935;SDS011;40838;50.676;7.838;2022-11-18T00:07:25;12.65;;;4.53;;
54935;SDS011;40838;50.676;7.838;2022-11-18T00:09:52;9.68;;;4.80;;
54935;SDS011;40838;50.676;7.838;2022-11-18T00:12:19;12.18;;;3.90;;
54935;SDS011;40838;50.676;7.838;2022-11-18T00:15:03;11.03;;;4.27;;
54935;SDS011;40838;50.676;7.838;2022-11-18T00:17:32;10.15;;;4.03;;
54935;SDS011;40838;50.676;7.838;2022-11-18T00:19:59;14.30;;;3.85;;
54935;SDS011;40838;50.676;7.838;2022-11-18T00:22:26;12.55;;;4.82;;
54935;SDS011;40838;50.676;7.838;2022-11-18T00:24:53;10.73;;;4.55;;
54935;SDS011;40838;50.676;7.838;2022-11-18T00:27:20;11.43;;;4.70;;
54935;SDS011;40838;50.676;7.838;2022-11-18T00:29:46;9.65;;;5.03;;
54935;SDS011;40838;50.676;7.838;2022-11-18T00:32:13;15.48;;;4.90;;
54935;SDS011;40838;50.676;7.838;2022-11-18T00:34:41;15.25;;;6.45;;
54935;SDS011;40838;50.676;7.838;2022-11-18T00:37:08;13.20;;;5.70;;
54935;SDS011;40838;50.676;7.838;2022-11-18T00:39:35;12.27;;;5.32;;
54935;SDS011;40838;50.676;7.838;2022-11-18T00:42:02;12.85;;;5.50;;
54935;SDS011;40838;50.676;7.838;2022-11-18T00:44:46;15.55;;;5.95;;
54935;SDS011;40838;50.676;7.838;2022-11-18T00:47:13;18.63;;;6.13;;
54935;SDS011;40838;50.676;7.838;2022-11-18T00:49:41;14.55;;;6.20;;
54935;SDS011;40838;50.676;7.838;2022-11-18T00:52:08;13.10;;;6.20;;
54935;SDS011;40838;50.676;7.838;2022-11-18T00:54:35;13.52;;;6.25;;
54935;SDS011;40838;50.676;7.838;2022-11-18T00:57:02;16.15;;;6.03;;
54935;SDS011;40838;50.676;7.838;2022-11-18T00:59:29;15.52;;;6.82;;
54935;SDS011;40838;50.676;7.838;2022-11-18T01:01:56;14.25;;;5.97;;
54935;SDS011;40838;50.676;7.838;2022-11-18T01:04:23;15.93;;;5.90;;
54935;SDS011;40838;50.676;7.838;2022-11-18T01:06:51;21.88;;;6.18;;
54935;SDS011;40838;50.676;7.838;2022-11-18T01:09:18;17.15;;;6.25;;
54935;SDS011;40838;50.676;7.838;2022-11-18T01:11:45;12.40;;;5.60;;
54935;SDS011;40838;50.676;7.838;2022-11-18T01:14:29;12.73;;;5.15;;
54935;SDS011;40838;50.676;7.838;2022-11-18T01:16:56;14.63;;;5.78;;
54935;SDS011;40838;50.676;7.838;2022-11-18T01:19:23;15.77;;;5.10;;
54935;SDS011;40838;50.676;7.838;2022-11-18T01:21:52;11.90;;;4.25;;
54935;SDS011;40838;50.676;7.838;2022-11-18T01:24:20;12.63;;;4.60;;
54935;SDS011;40838;50.676;7.838;2022-11-18T01:26:48;11.43;;;4.68;;
54935;SDS011;40838;50.676;7.838;2022-11-18T01:29:15;8.50;;;4.10;;
54935;SDS011;40838;50.676;7.838;2022-11-18T01:31:42;11.48;;;5.00;;
54935;SDS011;40838;50.676;7.838;2022-11-18T01:34:09;11.77;;;5.05;;
54935;SDS011;40838;50.676;7.838;2022-11-18T01:36:36;10.18;;;4.25;;
54935;SDS011;40838;50.676;7.838;2022-11-18T01:39:04;12.93;;;5.47;;
54935;SDS011;40838;50.676;7.838;2022-11-18T01:41:31;12.50;;;4.65;;
54935;SDS011;40838;50.676;7.838;2022-11-18T01:43:59;17.10;;;6.53;;
54935;SDS011;40838;50.676;7.838;2022-11-18T01:46:28;14.88;;;5.13;;
54935;SDS011;40838;50.676;7.838;2022-11-18T01:48:57;10.30;;;5.15;;
54935;SDS011;40838;50.676;7.838;2022-11-18T01:51:28;13.85;;;5.60;;
54935;SDS011;40838;50.676;7.838;2022-11-18T01:53:59;11.13;;;4.60;;
54935;SDS011;40838;50.676;7.838;2022-11-18T01:56:31;15.88;;;5.10;;
54935;SDS011;40838;50.676;7.838;2022-11-18T01:59:04;14.48;;;5.47;;
54935;SDS011;40838;50.676;7.838;2022-11-18T02:01:33;14.57;;;5.57;;
54935;SDS011;40838;50.676;7.838;2022-11-18T02:04:00;11.32;;;5.60;;
54935;SDS011;40838;50.676;7.838;2022-11-18T02:06:27;13.45;;;6.30;;
54935;SDS011;40838;50.676;7.838;2022-11-18T02:08:54;15.15;;;5.95;;
54935;SDS011;40838;50.676;7.838;2022-11-18T02:11:21;17.92;;;6.72;;
54935;SDS011;40838;50.676;7.838;2022-11-18T02:14:07;20.00;;;6.17;;
54935;SDS011;40838;50.676;7.838;2022-11-18T02:16:49;9.82;;;5.25;;
54935;SDS011;40838;50.676;7.838;2022-11-18T02:19:31;10.52;;;5.40;;
54935;SDS011;40838;50.676;7.838;2022-11-18T02:22:21;15.05;;;5.55;;
54935;SDS011;40838;50.676;7.838;2022-11-18T02:25:04;14.20;;;5.65;;
54935;SDS011;40838;50.676;7.838;2022-11-18T02:27:49;19.38;;;7.18;;
54935;SDS011;40838;50.676;7.838;2022-11-18T02:30:29;15.98;;;6.05;;
54935;SDS011;40838;50.676;7.838;2022-11-18T02:33:01;13.35;;;5.53;;
54935;SDS011;40838;50.676;7.838;2022-11-18T02:35:32;10.88;;;5.38;;
54935;SDS011;40838;50.676;7.838;2022-11-18T02:38:08;16.88;;;6.43;;
54935;SDS011;40838;50.676;7.838;2022-11-18T02:40:40;13.55;;;5.38;;
54935;SDS011;40838;50.676;7.838;2022-11-18T02:43:10;14.35;;;5.63;;
54935;SDS011;40838;50.676;7.838;2022-11-18T02:45:44;18.38;;;5.68;;
54935;SDS011;40838;50.676;7.838;2022-11-18T02:48:16;11.40;;;5.97;;
54935;SDS011;40838;50.676;7.838;2022-11-18T02:50:45;14.00;;;6.18;;
54935;SDS011;40838;50.676;7.838;2022-11-18T02:53:15;15.35;;;6.57;;
54935;SDS011;40838;50.676;7.838;2022-11-18T02:55:45;14.35;;;6.10;;
54935;SDS011;40838;50.676;7.838;2022-11-18T02:58:14;18.58;;;6.50;;
54935;SDS011;40838;50.676;7.838;2022-11-18T03:00:51;13.93;;;6.72;;
54935;SDS011;40838;50.676;7.838;2022-11-18T03:03:22;22.02;;;6.55;;
54935;SDS011;40838;50.676;7.838;2022-11-18T03:05:53;22.08;;;6.07;;
54935;SDS011;40838;50.676;7.838;2022-11-18T03:08:28;14.85;;;6.43;;
54935;SDS011;40838;50.676;7.838;2022-11-18T03:11:02;14.40;;;6.90;;
54935;SDS011;40838;50.676;7.838;2022-11-18T03:13:38;17.17;;;6.28;;
54935;SDS011;40838;50.676;7.838;2022-11-18T03:16:17;13.98;;;6.53;;
54935;SDS011;40838;50.676;7.838;2022-11-18T03:18:49;14.55;;;5.97;;
54935;SDS011;40838;50.676;7.838;2022-11-18T03:21:22;11.68;;;5.82;;
54935;SDS011;40838;50.676;7.838;2022-11-18T03:23:58;14.23;;;6.30;;
54935;SDS011;40838;50.676;7.838;2022-11-18T03:26:34;23.90;;;7.35;;
54935;SDS011;40838;50.676;7.838;2022-11-18T03:29:04;20.70;;;7.72;;
54935;SDS011;40838;50.676;7.838;2022-11-18T03:31:38;21.15;;;7.05;;
54935;SDS011;40838;50.676;7.838;2022-11-18T03:34:08;14.77;;;6.35;;
54935;SDS011;40838;50.676;7.838;2022-11-18T03:36:41;17.27;;;6.55;;
54935;SDS011;40838;50.676;7.838;2022-11-18T03:39:12;21.95;;;7.43;;
54935;SDS011;40838;50.676;7.838;2022-11-18T03:41:43;14.75;;;6.88;;
54935;SDS011;40838;50.676;7.838;2022-11-18T03:44:17;19.63;;;6.43;;
54935;SDS011;40838;50.676;7.838;2022-11-18T03:46:49;14.23;;;6.47;;
54935;SDS011;40838;50.676;7.838;2022-11-18T03:49:25;15.35;;;6.13;;
54935;SDS011;40838;50.676;7.838;2022-11-18T03:51:55;19.63;;;7.40;;
54935;SDS011;40838;50.676;7.838;2022-11-18T03:54:27;15.80;;;5.80;;
54935;SDS011;40838;50.676;7.838;2022-11-18T03:56:58;18.88;;;6.90;;
54935;SDS011;40838;50.676;7.838;2022-11-18T03:59:28;19.70;;;6.35;;
54935;SDS011;40838;50.676;7.838;2022-11-18T04:02:02;14.82;;;6.45;;
54935;SDS011;40838;50.676;7.838;2022-11-18T04:04:35;19.73;;;7.13;;
54935;SDS011;40838;50.676;7.838;2022-11-18T04:07:04;20.15;;;7.03;;
54935;SDS011;40838;50.676;7.838;2022-11-18T04:09:40;18.02;;;7.28;;
54935;SDS011;40838;50.676;7.838;2022-11-18T04:12:12;17.95;;;7.07;;
54935;SDS011;40838;50.676;7.838;2022-11-18T04:14:41;19.70;;;7.00;;
54935;SDS011;40838;50.676;7.838;2022-11-18T04:17:12;20.88;;;6.85;;
54935;SDS011;40838;50.676;7.838;2022-11-18T04:19:40;16.20;;;7.65;;
54935;SDS011;40838;50.676;7.838;2022-11-18T04:22:08;23.10;;;7.88;;
54935;SDS011;40838;50.676;7.838;2022-11-18T04:24:36;15.77;;;6.90;;
54935;SDS011;40838;50.676;7.838;2022-11-18T04:27:03;16.48;;;6.50;;
54935;SDS011;40838;50.676;7.838;2022-11-18T04:29:30;14.93;;;6.93;;
54935;SDS011;40838;50.676;7.838;2022-11-18T04:31:58;14.07;;;6.40;;
54935;SDS011;40838;50.676;7.838;2022-11-18T04:34:27;13.65;;;7.13;;
54935;SDS011;40838;50.676;7.838;2022-11-18T04:36:54;18.67;;;6.70;;
54935;SDS011;40838;50.676;7.838;2022-11-18T04:39:22;15.35;;;6.05;;
54935;SDS011;40838;50.676;7.838;2022-11-18T04:41:49;15.80;;;6.93;;
54935;SDS011;40838;50.676;7.838;2022-11-18T04:44:21;19.48;;;6.47;;
54935;SDS011;40838;50.676;7.838;2022-11-18T04:46:49;16.92;;;6.45;;
54935;SDS011;40838;50.676;7.838;2022-11-18T04:49:16;16.10;;;7.28;;
54935;SDS011;40838;50.676;7.838;2022-11-18T04:51:45;25.70;;;7.18;;
54935;SDS011;40838;50.676;7.838;2022-11-18T04:54:12;15.45;;;6.95;;
54935;SDS011;40838;50.676;7.838;2022-11-18T04:56:40;14.10;;;5.88;;
54935;SDS011;40838;50.676;7.838;2022-11-18T04:59:07;13.10;;;6.45;;
54935;SDS011;40838;50.676;7.838;2022-11-18T05:01:35;17.33;;;8.35;;
54935;SDS011;40838;50.676;7.838;2022-11-18T05:04:02;14.75;;;6.30;;
54935;SDS011;40838;50.676;7.838;2022-11-18T05:06:30;17.02;;;7.40;;
54935;SDS011;40838;50.676;7.838;2022-11-18T05:09:00;18.98;;;6.93;;
54935;SDS011;40838;50.676;7.838;2022-11-18T05:11:27;15.05;;;6.80;;
54935;SDS011;40838;50.676;7.838;2022-11-18T05:14:12;19.33;;;7.35;;
54935;SDS011;40838;50.676;7.838;2022-11-18T05:16:39;16.90;;;7.75;;
54935;SDS011;40838;50.676;7.838;2022-11-18T05:19:06;17.13;;;6.80;;
54935;SDS011;40838;50.676;7.838;2022-11-18T05:21:34;18.27;;;8.20;;
54935;SDS011;40838;50.676;7.838;2022-11-18T05:24:02;20.15;;;8.05;;
54935;SDS011;40838;50.676;7.838;2022-11-18T05:26:30;20.25;;;8.88;;
54935;SDS011;40838;50.676;7.838;2022-11-18T05:28:56;26.70;;;8.52;;
54935;SDS011;40838;50.676;7.838;2022-11-18T05:31:23;26.40;;;8.95;;
54935;SDS011;40838;50.676;7.838;2022-11-18T05:33:50;20.75;;;8.35;;
54935;SDS011;40838;50.676;7.838;2022-11-18T05:36:18;19.15;;;7.22;;
54935;SDS011;40838;50.676;7.838;2022-11-18T05:38:45;17.55;;;7.18;;
54935;SDS011;40838;50.676;7.838;2022-11-18T05:41:14;21.20;;;7.55;;
54935;SDS011;40838;50.676;7.838;2022-11-18T05:43:55;17.52;;;6.85;;
54935;SDS011;40838;50.676;7.838;2022-11-18T05:46:22;19.48;;;9.15;;
54935;SDS011;40838;50.676;7.838;2022-11-18T05:48:49;21.83;;;11.18;;
54935;SDS011;40838;50.676;7.838;2022-11-18T05:51:15;21.95;;;12.32;;
54935;SDS011;40838;50.676;7.838;2022-11-18T05:53:42;28.88;;;11.00;;
54935;SDS011;40838;50.676;7.838;2022-11-18T05:56:12;20.48;;;10.20;;
54935;SDS011;40838;50.676;7.838;2022-11-18T06:01:11;28.23;;;9.20;;
54935;SDS011;40838;50.676;7.838;2022-11-18T06:03:41;18.70;;;8.02;;
54935;SDS011;40838;50.676;7.838;2022-11-18T06:06:08;15.90;;;8.15;;
54935;SDS011;40838;50.676;7.838;2022-11-18T06:08:39;22.60;;;10.88;;
54935;SDS011;40838;50.676;7.838;2022-11-18T06:11:11;28.65;;;13.48;;
54935;SDS011;40838;50.676;7.838;2022-11-18T06:13:43;22.75;;;12.60;;
54935;SDS011;40838;50.676;7.838;2022-11-18T06:16:16;19.67;;;8.05;;
54935;SDS011;40838;50.676;7.838;2022-11-18T06:18:46;21.63;;;10.98;;
54935;SDS011;40838;50.676;7.838;2022-11-18T06:21:13;24.20;;;11.57;;
54935;SDS011;40838;50.676;7.838;2022-11-18T06:23:40;23.50;;;10.60;;
54935;SDS011;40838;50.676;7.838;2022-11-18T06:26:08;18.77;;;9.80;;
54935;SDS011;40838;50.676;7.838;2022-11-18T06:28:37;23.27;;;12.07;;
54935;SDS011;40838;50.676;7.838;2022-11-18T06:31:08;23.77;;;12.63;;
54935;SDS011;40838;50.676;7.838;2022-11-18T06:33:35;21.98;;;10.30;;
54935;SDS011;40838;50.676;7.838;2022-11-18T06:36:02;23.27;;;9.38;;
54935;SDS011;40838;50.676;7.838;2022-11-18T06:38:29;17.95;;;9.85;;
54935;SDS011;40838;50.676;7.838;2022-11-18T06:40:57;18.85;;;8.00;;
54935;SDS011;40838;50.676;7.838;2022-11-18T06:43:25;20.73;;;7.45;;
54935;SDS011;40838;50.676;7.838;2022-11-18T06:46:06;16.15;;;6.13;;
54935;SDS011;40838;50.676;7.838;2022-11-18T06:48:53;12.68;;;5.40;;
54935;SDS011;40838;50.676;7.838;2022-11-18T06:51:21;12.32;;;5.97;;
54935;SDS011;40838;50.676;7.838;2022-11-18T06:53:48;18.48;;;6.10;;
54935;SDS011;40838;50.676;7.838;2022-11-18T06:56:16;19.35;;;6.13;;
54935;SDS011;40838;50.676;7.838;2022-11-18T06:58:43;16.70;;;6.15;;
54935;SDS011;40838;50.676;7.838;2022-11-18T07:01:12;19.13;;;6.47;;
54935;SDS011;40838;50.676;7.838;2022-11-18T07:03:40;12.50;;;6.20;;
54935;SDS011;40838;50.676;7.838;2022-11-18T07:06:09;15.15;;;7.13;;
54935;SDS011;40838;50.676;7.838;2022-11-18T07:08:37;27.20;;;7.93;;
54935;SDS011;40838;50.676;7.838;2022-11-18T07:11:06;19.27;;;8.10;;
54935;SDS011;40838;50.676;7.838;2022-11-18T07:13:34;16.30;;;7.45;;
54935;SDS011;40838;50.676;7.838;2022-11-18T07:16:02;20.92;;;8.85;;
54935;SDS011;40838;50.676;7.838;2022-11-18T07:18:32;27.30;;;9.98;;
54935;SDS011;40838;50.676;7.838;2022-11-18T07:21:00;19.98;;;9.85;;
54935;SDS011;40838;50.676;7.838;2022-11-18T07:23:28;26.45;;;10.18;;
54935;SDS011;40838;50.676;7.838;2022-11-18T07:25:55;14.90;;;7.90;;
54935;SDS011;40838;50.676;7.838;2022-11-18T07:28:22;16.63;;;7.50;;
54935;SDS011;40838;50.676;7.838;2022-11-18T07:30:49;19.88;;;8.90;;
54935;SDS011;40838;50.676;7.838;2022-11-18T07:33:16;14.95;;;8.55;;
54935;SDS011;40838;50.676;7.838;2022-11-18T07:35:44;22.15;;;8.40;;
54935;SDS011;40838;50.676;7.838;2022-11-18T07:38:11;27.27;;;15.70;;
54935;SDS011;40838;50.676;7.838;2022-11-18T07:40:38;40.70;;;14.88;;
54935;SDS011;40838;50.676;7.838;2022-11-18T07:43:05;54.03;;;15.30;;
54935;SDS011;40838;50.676;7.838;2022-11-18T07:45:33;22.77;;;10.25;;
54935;SDS011;40838;50.676;7.838;2022-11-18T07:48:00;19.88;;;9.73;;
54935;SDS011;40838;50.676;7.838;2022-11-18T07:50:27;22.90;;;10.43;;
54935;SDS011;40838;50.676;7.838;2022-11-18T07:52:55;27.40;;;12.15;;
54935;SDS011;40838;50.676;7.838;2022-11-18T07:55:23;17.75;;;9.32;;
54935;SDS011;40838;50.676;7.838;2022-11-18T07:57:50;25.58;;;11.43;;
54935;SDS011;40838;50.676;7.838;2022-11-18T08:00:17;29.75;;;9.85;;
54935;SDS011;40838;50.676;7.838;2022-11-18T08:02:48;31.98;;;11.43;;
54935;SDS011;40838;50.676;7.838;2022-11-18T08:05:15;19.27;;;9.75;;
54935;SDS011;40838;50.676;7.838;2022-11-18T08:07:42;24.55;;;10.82;;
54935;SDS011;40838;50.676;7.838;2022-11-18T08:10:10;21.50;;;10.00;;
54935;SDS011;40838;50.676;7.838;2022-11-18T08:12:37;19.88;;;11.00;;
54935;SDS011;40838;50.676;7.838;2022-11-18T08:15:04;21.17;;;11.43;;
54935;SDS011;40838;50.676;7.838;2022-11-18T08:17:32;24.65;;;10.50;;
54935;SDS011;40838;50.676;7.838;2022-11-18T08:19:59;17.50;;;9.50;;
54935;SDS011;40838;50.676;7.838;2022-11-18T08:22:27;17.67;;;10.57;;
54935;SDS011;40838;50.676;7.838;2022-11-18T08:24:54;21.63;;;9.98;;
54935;SDS011;40838;50.676;7.838;2022-11-18T08:27:22;27.45;;;11.48;;
54935;SDS011;40838;50.676;7.838;2022-11-18T08:29:49;20.25;;;10.77;;
54935;SDS011;40838;50.676;7.838;2022-11-18T08:32:16;18.88;;;8.60;;
54935;SDS011;40838;50.676;7.838;2022-11-18T08:34:43;20.95;;;10.23;;
54935;SDS011;40838;50.676;7.838;2022-11-18T08:37:10;16.85;;;9.10;;
54935;SDS011;40838;50.676;7.838;2022-11-18T08:39:36;17.38;;;9.20;;
54935;SDS011;40838;50.676;7.838;2022-11-18T08:42:03;19.70;;;8.13;;
54935;SDS011;40838;50.676;7.838;2022-11-18T08:44:32;17.27;;;7.88;;
54935;SDS011;40838;50.676;7.838;2022-11-18T08:46:58;15.02;;;7.68;;
54935;SDS011;40838;50.676;7.838;2022-11-18T08:49:26;14.73;;;6.50;;
54935;SDS011;40838;50.676;7.838;2022-11-18T08:51:52;10.43;;;6.07;;
54935;SDS011;40838;50.676;7.838;2022-11-18T08:54:19;14.25;;;6.60;;
54935;SDS011;40838;50.676;7.838;2022-11-18T08:56:48;18.38;;;6.35;;
54935;SDS011;40838;50.676;7.838;2022-11-18T08:59:15;10.60;;;6.47;;
54935;SDS011;40838;50.676;7.838;2022-11-18T09:01:44;11.57;;;5.70;;
54935;SDS011;40838;50.676;7.838;2022-11-18T09:04:11;11.52;;;5.40;;
54935;SDS011;40838;50.676;7.838;2022-11-18T09:06:38;7.35;;;3.70;;
54935;SDS011;40838;50.676;7.838;2022-11-18T09:09:05;9.90;;;4.20;;
54935;SDS011;40838;50.676;7.838;2022-11-18T09:11:33;8.48;;;3.97;;
54935;SDS011;40838;50.676;7.838;2022-11-18T09:14:01;9.45;;;4.75;;
54935;SDS011;40838;50.676;7.838;2022-11-18T09:16:28;10.40;;;4.65;;
54935;SDS011;40838;50.676;7.838;2022-11-18T09:18:58;10.13;;;4.95;;
54935;SDS011;40838;50.676;7.838;2022-11-18T09:21:25;9.20;;;4.22;;
54935;SDS011;40838;50.676;7.838;2022-11-18T09:23:52;7.28;;;4.80;;
54935;SDS011;40838;50.676;7.838;2022-11-18T09:26:20;12.85;;;7.40;;
54935;SDS011;40838;50.676;7.838;2022-11-18T09:28:48;12.70;;;7.35;;
54935;SDS011;40838;50.676;7.838;2022-11-18T09:31:18;12.48;;;5.82;;
54935;SDS011;40838;50.676;7.838;2022-11-18T09:33:45;16.27;;;6.72;;
54935;SDS011;40838;50.676;7.838;2022-11-18T09:36:14;12.30;;;6.68;;
54935;SDS011;40838;50.676;7.838;2022-11-18T09:38:42;10.45;;;5.82;;
54935;SDS011;40838;50.676;7.838;2022-11-18T09:41:14;11.35;;;6.65;;
54935;SDS011;40838;50.676;7.838;2022-11-18T09:43:52;14.18;;;6.88;;
54935;SDS011;40838;50.676;7.838;2022-11-18T09:46:29;12.82;;;6.88;;
54935;SDS011;40838;50.676;7.838;2022-11-18T09:49:08;10.05;;;6.75;;
54935;SDS011;40838;50.676;7.838;2022-11-18T09:51:41;11.80;;;6.93;;
54935;SDS011;40838;50.676;7.838;2022-11-18T09:54:11;13.82;;;7.47;;
54935;SDS011;40838;50.676;7.838;2022-11-18T09:56:44;15.52;;;6.80;;
54935;SDS011;40838;50.676;7.838;2022-11-18T09:59:12;18.23;;;7.00;;
54935;SDS011;40838;50.676;7.838;2022-11-18T10:01:43;12.30;;;6.50;;
54935;SDS011;40838;50.676;7.838;2022-11-18T10:04:13;14.00;;;5.53;;
54935;SDS011;40838;50.676;7.838;2022-11-18T10:06:43;6.13;;;4.90;;
54935;SDS011;40838;50.676;7.838;2022-11-18T10:12:11;8.73;;;4.53;;
54935;SDS011;40838;50.676;7.838;2022-11-18T10:14:48;5.95;;;4.30;;
54935;SDS011;40838;50.676;7.838;2022-11-18T10:17:31;6.43;;;3.72;;
54935;SDS011;40838;50.676;7.838;2022-11-18T10:20:14;9.18;;;3.92;;
54935;SDS011;40838;50.676;7.838;2022-11-18T10:22:51;6.97;;;4.05;;
54935;SDS011;40838;50.676;7.838;2022-11-18T10:25:21;9.80;;;4.10;;
54935;SDS011;40838;50.676;7.838;2022-11-18T10:27:48;12.73;;;4.57;;
54935;SDS011;40838;50.676;7.838;2022-11-18T10:30:17;6.32;;;3.80;;
54935;SDS011;40838;50.676;7.838;2022-11-18T10:32:52;6.53;;;3.17;;
54935;SDS011;40838;50.676;7.838;2022-11-18T10:35:25;8.40;;;3.75;;
54935;SDS011;40838;50.676;7.838;2022-11-18T10:38:02;9.05;;;3.35;;
54935;SDS011;40838;50.676;7.838;2022-11-18T10:40:32;6.82;;;3.88;;
54935;SDS011;40838;50.676;7.838;2022-11-18T10:43:01;7.55;;;3.50;;
54935;SDS011;40838;50.676;7.838;2022-11-18T10:45:29;7.78;;;3.35;;
54935;SDS011;40838;50.676;7.838;2022-11-18T10:48:02;8.07;;;4.30;;
54935;SDS011;40838;50.676;7.838;2022-11-18T10:50:34;4.10;;;3.20;;
54935;SDS011;40838;50.676;7.838;2022-11-18T10:53:04;5.65;;;2.90;;
54935;SDS011;40838;50.676;7.838;2022-11-18T10:55:56;6.53;;;2.60;;
54935;SDS011;40838;50.676;7.838;2022-11-18T10:58:24;4.88;;;2.47;;
54935;SDS011;40838;50.676;7.838;2022-11-18T11:00:52;6.90;;;2.38;;
54935;SDS011;40838;50.676;7.838;2022-11-18T11:03:33;7.90;;;2.40;;
54935;SDS011;40838;50.676;7.838;2022-11-18T11:09:04;4.63;;;1.92;;
54935;SDS011;40838;50.676;7.838;2022-11-18T11:11:34;7.85;;;2.28;;
54935;SDS011;40838;50.676;7.838;2022-11-18T11:14:18;6.72;;;2.22;;
54935;SDS011;40838;50.676;7.838;2022-11-18T11:16:56;5.10;;;1.90;;
54935;SDS011;40838;50.676;7.838;2022-11-18T11:19:30;7.00;;;2.05;;
54935;SDS011;40838;50.676;7.838;2022-11-18T11:22:04;8.40;;;1.45;;
54935;SDS011;40838;50.676;7.838;2022-11-18T11:24:38;5.07;;;1.70;;
54935;SDS011;40838;50.676;7.838;2022-11-18T11:27:10;5.20;;;1.70;;
54935;SDS011;40838;50.676;7.838;2022-11-18T11:30:12;2.75;;;1.40;;
54935;SDS011;40838;50.676;7.838;2022-11-18T11:32:48;3.20;;;1.50;;
54935;SDS011;40838;50.676;7.838;2022-11-18T11:35:26;5.88;;;1.52;;
54935;SDS011;40838;50.676;7.838;2022-11-18T11:37:57;5.90;;;1.73;;
54935;SDS011;40838;50.676;7.838;2022-11-18T11:40:28;7.30;;;1.70;;
54935;SDS011;40838;50.676;7.838;2022-11-18T11:43:05;3.47;;;1.50;;
54935;SDS011;40838;50.676;7.838;2022-11-18T11:45:51;7.20;;;1.52;;
54935;SDS011;40838;50.676;7.838;2022-11-18T11:48:36;4.78;;;1.60;;
54935;SDS011;40838;50.676;7.838;2022-11-18T11:51:13;10.55;;;1.73;;
54935;SDS011;40838;50.676;7.838;2022-11-18T11:54:00;5.55;;;1.60;;
54935;SDS011;40838;50.676;7.838;2022-11-18T11:56:39;3.15;;;1.52;;
54935;SDS011;40838;50.676;7.838;2022-11-18T11:59:18;4.95;;;1.70;;
54935;SDS011;40838;50.676;7.838;2022-11-18T12:01:55;6.88;;;1.63;;
54935;SDS011;40838;50.676;7.838;2022-11-18T12:04:31;5.63;;;2.42;;
54935;SDS011;40838;50.676;7.838;2022-11-18T12:07:05;5.75;;;2.30;;
54935;SDS011;40838;50.676;7.838;2022-11-18T12:09:39;5.18;;;2.47;;
54935;SDS011;40838;50.676;7.838;2022-11-18T12:12:20;3.80;;;1.48;;
54935;SDS011;40838;50.676;7.838;2022-11-18T12:15:19;7.22;;;1.83;;
54935;SDS011;40838;50.676;7.838;2022-11-18T12:18:00;7.50;;;1.77;;
54935;SDS011;40838;50.676;7.838;2022-11-18T12:20:40;7.18;;;1.85;;
54935;SDS011;40838;50.676;7.838;2022-11-18T12:23:10;3.83;;;1.80;;
54935;SDS011;40838;50.676;7.838;2022-11-18T12:25:54;8.68;;;3.33;;
54935;SDS011;40838;50.676;7.838;2022-11-18T12:28:31;4.75;;;1.92;;
54935;SDS011;40838;50.676;7.838;2022-11-18T12:34:17;8.82;;;2.35;;
54935;SDS011;40838;50.676;7.838;2022-11-18T12:36:54;5.85;;;1.67;;
54935;SDS011;40838;50.676;7.838;2022-11-18T12:42:35;4.90;;;1.75;;
54935;SDS011;40838;50.676;7.838;2022-11-18T12:48:26;6.72;;;1.55;;
54935;SDS011;40838;50.676;7.838;2022-11-18T12:54:25;7.38;;;2.00;;
54935;SDS011;40838;50.676;7.838;2022-11-18T12:56:56;7.78;;;1.50;;
54935;SDS011;40838;50.676;7.838;2022-11-18T12:59:26;7.82;;;1.73;;
54935;SDS011;40838;50.676;7.838;2022-11-18T13:02:06;6.03;;;1.98;;
54935;SDS011;40838;50.676;7.838;2022-11-18T13:04:43;5.72;;;2.30;;
54935;SDS011;40838;50.676;7.838;2022-11-18T13:07:11;7.50;;;2.40;;
54935;SDS011;40838;50.676;7.838;2022-11-18T13:09:53;9.20;;;3.00;;
54935;SDS011;40838;50.676;7.838;2022-11-18T13:12:21;6.07;;;1.83;;
54935;SDS011;40838;50.676;7.838;2022-11-18T13:14:52;5.68;;;1.95;;
54935;SDS011;40838;50.676;7.838;2022-11-18T13:17:40;3.75;;;2.03;;
54935;SDS011;40838;50.676;7.838;2022-11-18T13:20:21;9.65;;;1.80;;
54935;SDS011;40838;50.676;7.838;2022-11-18T13:22:51;5.95;;;1.55;;
54935;SDS011;40838;50.676;7.838;2022-11-18T13:25:37;5.70;;;1.90;;
54935;SDS011;40838;50.676;7.838;2022-11-18T13:28:10;9.90;;;2.00;;
54935;SDS011;40838;50.676;7.838;2022-11-18T13:30:45;5.00;;;1.40;;
54935;SDS011;40838;50.676;7.838;2022-11-18T13:33:18;6.60;;;1.92;;
54935;SDS011;40838;50.676;7.838;2022-11-18T13:35:45;5.90;;;1.50;;
54935;SDS011;40838;50.676;7.838;2022-11-18T13:38:19;8.70;;;1.67;;
54935;SDS011;40838;50.676;7.838;2022-11-18T13:40:49;8.20;;;1.40;;
54935;SDS011;40838;50.676;7.838;2022-11-18T13:43:32;3.25;;;1.33;;
54935;SDS011;40838;50.676;7.838;2022-11-18T13:46:00;13.07;;;2.22;;
54935;SDS011;40838;50.676;7.838;2022-11-18T13:48:31;5.05;;;2.17;;
54935;SDS011;40838;50.676;7.838;2022-11-18T13:51:01;3.33;;;1.52;;
54935;SDS011;40838;50.676;7.838;2022-11-18T13:53:29;4.30;;;1.30;;
54935;SDS011;40838;50.676;7.838;2022-11-18T13:55:57;4.53;;;1.45;;
54935;SDS011;40838;50.676;7.838;2022-11-18T13:58:31;10.20;;;2.13;;
54935;SDS011;40838;50.676;7.838;2022-11-18T14:01:02;4.95;;;1.20;;
54935;SDS011;40838;50.676;7.838;2022-11-18T14:03:33;3.17;;;1.55;;
54935;SDS011;40838;50.676;7.838;2022-11-18T14:06:02;8.55;;;1.45;;
54935;SDS011;40838;50.676;7.838;2022-11-18T14:08:30;7.60;;;2.05;;
54935;SDS011;40838;50.676;7.838;2022-11-18T14:10:58;4.47;;;1.50;;
54935;SDS011;40838;50.676;7.838;2022-11-18T14:13:26;8.30;;;1.55;;
54935;SDS011;40838;50.676;7.838;2022-11-18T14:15:54;8.95;;;1.48;;
54935;SDS011;40838;50.676;7.838;2022-11-18T14:18:25;5.25;;;1.52;;
54935;SDS011;40838;50.676;7.838;2022-11-18T14:20:57;5.22;;;1.60;;
54935;SDS011;40838;50.676;7.838;2022-11-18T14:23:26;3.55;;;1.63;;
54935;SDS011;40838;50.676;7.838;2022-11-18T14:25:55;8.85;;;1.33;;
54935;SDS011;40838;50.676;7.838;2022-11-18T14:28:25;6.13;;;1.60;;
54935;SDS011;40838;50.676;7.838;2022-11-18T14:31:03;5.45;;;1.38;;
54935;SDS011;40838;50.676;7.838;2022-11-18T14:33:32;7.28;;;1.40;;
54935;SDS011;40838;50.676;7.838;2022-11-18T14:36:02;6.55;;;1.90;;
54935;SDS011;40838;50.676;7.838;2022-11-18T14:38:39;2.72;;;1.30;;
54935;SDS011;40838;50.676;7.838;2022-11-18T14:41:09;2.50;;;1.30;;
54935;SDS011;40838;50.676;7.838;2022-11-18T14:43:37;4.97;;;1.73;;
54935;SDS011;40838;50.676;7.838;2022-11-18T14:46:05;6.85;;;2.05;;
54935;SDS011;40838;50.676;7.838;2022-11-18T14:48:37;5.95;;;1.52;;
54935;SDS011;40838;50.676;7.838;2022-11-18T14:51:08;7.18;;;2.15;;
54935;SDS011;40838;50.676;7.838;2022-11-18T14:53:37;9.18;;;2.28;;
54935;SDS011;40838;50.676;7.838;2022-11-18T14:56:10;6.05;;;2.03;;
54935;SDS011;40838;50.676;7.838;2022-11-18T14:58:39;8.50;;;1.95;;
54935;SDS011;40838;50.676;7.838;2022-11-18T15:01:08;7.43;;;1.88;;
54935;SDS011;40838;50.676;7.838;2022-11-18T15:03:36;4.53;;;1.95;;
54935;SDS011;40838;50.676;7.838;2022-11-18T15:06:08;12.40;;;1.50;;
54935;SDS011;40838;50.676;7.838;2022-11-18T15:08:37;4.22;;;1.13;;
54935;SDS011;40838;50.676;7.838;2022-11-18T15:11:04;9.43;;;1.52;;
54935;SDS011;40838;50.676;7.838;2022-11-18T15:13:31;8.77;;;1.42;;
54935;SDS011;40838;50.676;7.838;2022-11-18T15:15:58;5.78;;;1.30;;
54935;SDS011;40838;50.676;7.838;2022-11-18T15:18:26;3.45;;;1.20;;
54935;SDS011;40838;50.676;7.838;2022-11-18T15:20:53;11.57;;;1.40;;